ADDS METAR Data INFO
IDs: Format: Raw Decoded Include TAF

Data at: 0445 UTC 21 Feb 2018

KMGG 201515Z AUTO 33007KT 10SM SCT012 OVC044 M09/M11 A2991 RMK AO2 T10931111
KMGG 201455Z AUTO 31006KT 10SM SCT012 OVC042 M09/M11 A2993 RMK AO2 T10951113
KMGG 201435Z AUTO 33009KT 10SM OVC042 M10/M11 A2990 RMK AO2 T10971114
KMGG 201415Z AUTO 33008KT 10SM OVC042 M10/M11 A2990 RMK AO2 T10971113
KMGG 201355Z AUTO 33007KT 10SM OVC044 M10/M11 A2990 RMK AO2 T10961112
KMGG 201335Z AUTO 32006KT 10SM OVC044 M10/M11 A2990 RMK AO2 T10971112
KMGG 201315Z AUTO 34008KT 10SM OVC044 M10/M11 A2989 RMK AO2 T10971112
KMGG 201255Z AUTO 34008KT 10SM OVC044 M10/M11 A2989 RMK AO2 T10971112
KMGG 201235Z AUTO 34007KT 10SM OVC044 M10/M11 A2987 RMK AO2 T10971111
KMGG 201215Z AUTO 34009KT 10SM OVC044 M09/M11 A2987 RMK AO2 T10951110
KMGG 201155Z AUTO 35008KT 7SM OVC046 M09/M11 A2987 RMK AO2 T10951108 11070 21095
KMGG 201135Z AUTO 35008KT 5SM -SN OVC048 M09/M11 A2986 RMK AO2 T10951107
KMGG 201115Z AUTO 34008KT 4SM -SN SCT025 BKN048 OVC050 M09/M11 A2987 RMK AO2 T10951106
KMGG 201055Z AUTO 35009KT 2 1/2SM -SN BKN010 BKN021 OVC055 M09/M10 A2987 RMK AO2 T10931104
KMGG 201035Z AUTO 32007KT 1 1/2SM -SN OVC010 M09/M10 A2990 RMK AO2 T10901100
KMGG 201015Z AUTO 32007KT 1 1/4SM -SN OVC008 M09/M09 A2990 RMK AO2 T10861095
KMGG 200955Z AUTO 32007KT 1 1/4SM -SN OVC008 M08/M09 A2990 RMK AO2 T10821090
KMGG 200935Z AUTO 34005KT 2SM -SN OVC006 M08/M09 A2988 RMK AO2 T10811087
KMGG 200915Z AUTO 35007KT 4SM -SN OVC004 M08/M09 A2986 RMK AO2 T10811087
KMGG 200855Z AUTO 35008KT 3SM BR OVC004 M08/M09 A2985 RMK AO2 T10801086
KMGG 200835Z AUTO 34005KT 4SM BR OVC004 M08/M09 A2986 RMK AO2 T10801086
KMGG 200815Z AUTO 01008KT 4SM BR BKN004 OVC007 M08/M09 A2982 RMK AO2 T10801087
KMGG 200755Z AUTO 36006KT 7SM OVC009 M08/M09 A2988 RMK AO2 T10801090
KMGG 200735Z AUTO 35006KT 10SM OVC011 M07/M08 A2987 RMK AO2 T10711085
KMGG 200715Z AUTO 02007KT 10SM OVC011 M07/M09 A2987 RMK AO2 T10711088
KMGG 200655Z AUTO 02005KT 10SM OVC013 M07/M09 A2989 RMK AO2 T10711089
KMGG 200635Z AUTO 04006KT 10SM OVC013 M07/M09 A2991 RMK AO2 T10711090
KMGG 200615Z AUTO 04007KT 10SM OVC013 M07/M09 A2991 RMK AO2 T10711090
KMGG 200555Z AUTO 05009G14KT 10SM OVC013 M07/M09 A2991 RMK AO2 T10721092 11072 21077
KMGG 200535Z AUTO 04008G18KT 10SM OVC015 M07/M09 A2990 RMK AO2 T10721092
KMGG 200515Z AUTO 05013G17KT 10SM OVC015 M07/M09 A2990 RMK AO2 T10721093
KMGG 200455Z AUTO 05014KT 10SM OVC017 M07/M09 A2991 RMK AO2 T10721095
KMGG 200435Z AUTO 04011G14KT 10SM OVC017 M07/M10 A2993 RMK AO2 T10721096
KMGG 200415Z AUTO 04013G16KT 10SM OVC017 M07/M10 A2993 RMK AO2 T10721097
KMGG 200355Z AUTO 03009G15KT 10SM OVC019 M07/M10 A2993 RMK AO2 T10721097 410341091
KMGG 200335Z AUTO 03011G15KT 10SM OVC019 M07/M10 A2994 RMK AO2 T10731097
KMGG 200315Z AUTO 04010G18KT 10SM OVC021 M07/M10 A2995 RMK AO2 T10731097
KMGG 200255Z AUTO 04011G16KT 10SM SCT018 OVC025 M07/M10 A2994 RMK AO2 T10751097
KMGG 200235Z AUTO 03013G19KT 10SM SCT016 OVC027 M07/M10 A2992 RMK AO2 T10751096
KMGG 200215Z AUTO 03010G17KT 10SM SCT016 OVC027 M07/M09 A2993 RMK AO2 T10751095
KMGG 200155Z AUTO 03012G16KT 10SM SCT016 OVC029 M07/M09 A2994 RMK AO2 T10751095
KMGG 200135Z AUTO 03011G15KT 10SM SCT014 SCT019 OVC031 M07/M09 A2995 RMK AO2 T10751093
KMGG 200115Z AUTO 02010G18KT 10SM OVC033 M08/M09 A2995 RMK AO2 T10761093
KMGG 200055Z AUTO 03012G19KT 10SM OVC035 M08/M09 A2995 RMK AO2 T10761092
KMGG 200035Z AUTO 02014G19KT 5SM -SN OVC037 M08/M09 A2995 RMK AO2 T10771092
KMGG 200015Z AUTO 02012G18KT 4SM -SN OVC037 M08/M09 A2994 RMK AO2 T10771093
KMGG 192355Z AUTO 02012G17KT 3SM -SN SCT013 OVC035 M08/M09 A2994 RMK AO2 T10771093 11067 21077
KMGG 192335Z AUTO 02011KT 2 1/2SM -SN SCT013 OVC035 M08/M09 A2994 RMK AO2 T10771095
KMGG 192315Z AUTO 01011G18KT 3SM -SN OVC037 M08/M09 A2993 RMK AO2 T10761095
KMGG 192255Z AUTO 01011G18KT 5SM BR OVC037 M08/M10 A2993 RMK AO2 T10761096
KMGG 192235Z AUTO 02013KT 2 1/2SM -SN OVC037 M08/M10 A2991 RMK AO2 VIS 2V3 T10761098
KMGG 192215Z AUTO 02014G21KT 2 1/2SM -SN OVC037 M07/M10 A2991 RMK AO2 T10751100
KMGG 192155Z AUTO 03013G19KT 7SM SCT016 SCT024 OVC037 M07/M10 A2991 RMK AO2 T10751100
KMGG 192135Z AUTO 02010G18KT 7SM OVC037 M07/M10 A2990 RMK AO2 T10751099
KMGG 192115Z AUTO 02015G20KT 4SM BR OVC037 M07/M10 A2991 RMK AO2 T10731096
KMGG 192055Z AUTO 02015G21KT 3SM BR OVC037 M07/M09 A2990 RMK AO2 T10731095
KMGG 192035Z AUTO 02014G20KT 3SM -SN SCT010 SCT014 OVC039 M07/M09 A2990 RMK AO2 T10731094
KMGG 192015Z AUTO 02013G21KT 1 1/2SM -SN BKN008 OVC014 M07/M09 A2990 RMK AO2 T10711091
KMGG 191955Z AUTO 02012G20KT 1SM -SN OVC008 M07/M09 A2990 RMK AO2 T10701090
KMGG 191935Z AUTO 03015G20KT 1SM -SN OVC008 M07/M09 A2991 RMK AO2 T10681088
KMGG 191915Z AUTO 02014G19KT 1SM -SN OVC008 M07/M09 A2992 RMK AO2 T10681087
KMGG 191855Z AUTO 02015G19KT 1SM -SN OVC008 M07/M09 A2992 RMK AO2 T10681087
KMGG 191835Z AUTO 03012G22KT 1 1/2SM -SN OVC008 M07/M09 A2993 RMK AO2 T10701090
KMGG 191815Z AUTO 03012G17KT 1 1/2SM -SN OVC008 M07/M09 A2993 RMK AO2 T10701089
KMGG 191755Z AUTO 03009G18KT 1 3/4SM -SN OVC012 M07/M09 A2993 RMK AO2 T10711090 11071 21091
KMGG 191735Z AUTO 03011G18KT 1 1/4SM -SN OVC007 M07/M09 A2995 RMK AO2 T10751092
KMGG 191715Z AUTO 03010G18KT 1SM -SN OVC007 M08/M09 A2995 RMK AO2 T10761095
KMGG 191655Z AUTO 02011G16KT 1 1/2SM -SN OVC013 M08/M10 A2997 RMK AO2 T10771097